Nearby METAR Reports

 

KSJC - San Jose, California, USA
Distance from station: NE 9mi, 14km
Updated: 29/03/2020 19:53
Mostly cloudy
Mostly cloudy
 Wind from SE
Wind: SE 8 mph , 13 km/h
Temperature: 14°C
Dew Point: 8°C
Humidity: 67%
Barometer: 1020.7 hPa
Clouds: Mostly cloudy
Visibility: 10 miles , 16 km
Cloud details: Few Clouds 457 m
Few Clouds 1280 m
Mostly cloudy 2743 m
2020/03/29 18:53 KSJC 291853Z 14007KT 10SM FEW015 FEW042 BKN090 14/08 A3014 RMK AO2 SLP206 T01440083
KNUQ - Moffett Nas/Mtn, California, USA
Distance from station: N 9mi, 14km
Updated: 21/11/2019 16:56
NOT Current

 
Barometer: 1011.2 hPa
2019/11/21 16:56 KNUQ 211656Z AUTO A2986 RMK AO2 SLP116 PWINO $
 
KPAO - Palo Alto, California, USA
Distance from station: NNW 14mi, 23km
Updated: 29/03/2020 19:47
Mostly cloudy
Mostly cloudy
 Wind from SE
Wind: SE 10 mph , 17 km/h
Temperature: 15°C
Dew Point: 9°C
Humidity: 68%
Barometer: 1020.7 hPa
Clouds: Mostly cloudy
Visibility: 10 miles , 16 km
Cloud details: Partly cloudy 762 m
Mostly cloudy 1829 m
2020/03/29 18:47 KPAO 291847Z 13009KT 10SM SCT025 BKN060 15/09 A3014
KRHV - San Jose/Reid, California, USA
Distance from station: ENE 12mi, 19km
Updated: 29/03/2020 19:47
Overcast
Overcast
 Wind from SSE
Wind: SSE 9 mph , 15 km/h
Temperature: 14°C
Dew Point: 8°C
Humidity: 67%
Barometer: 1021 hPa
Clouds: Overcast
Visibility: 10 miles , 16 km
Cloud details: Partly cloudy 762 m
Overcast 1676 m
2020/03/29 18:47 KRHV 291847Z 15008KT 10SM SCT025 OVC055 14/08 A3015
 
KOAK - Oakland, California, USA
Distance from station: NNW 31mi, 50km
Updated: 29/03/2020 19:53
Mostly cloudy
Mostly cloudy
 Wind from SE
Wind: SE 8 mph , 13 km/h
Temperature: 16°C
Dew Point: 9°C
Humidity: 63%
Barometer: 1020.7 hPa
Clouds: Mostly cloudy
Visibility: 10 miles , 16 km
Cloud details: Few Clouds 305 m
Mostly cloudy 1524 m
Mostly cloudy 2134 m
2020/03/29 18:53 KOAK 291853Z 14007KT 10SM FEW010 BKN050 BKN070 16/09 A3014 RMK AO2 SLP207 T01610094 $
KSQL - San Carlos Airpo, California, USA
Distance from station: NW 21mi, 34km
Updated: 29/03/2020 19:47
Mostly cloudy
Mostly cloudy
 Wind from E
Wind: E 12 mph , 19 km/h
Temperature: 14°C
Dew Point: 9°C
Humidity: 72%
Barometer: 1021 hPa
Clouds: Mostly cloudy
Visibility: 10 miles , 16 km
Cloud details: Partly cloudy 914 m
Partly cloudy 1219 m
Mostly cloudy 2134 m
2020/03/29 18:47 KSQL 291847Z 10010KT 10SM SCT030 SCT040 BKN070 14/09 A3015
 
KSFO - San Francisco, California, USA
Distance from station: NW 30mi, 49km
Updated: 29/03/2020 19:56
Light rain, Mostly cloudy
Light rain, Mostly cloudy
 Wind from E
Wind: E 8 mph , 13 km/h
Temperature: 13°C
Dew Point: 9°C
Humidity: 77%
Barometer: 1020.7 hPa
Summary: Light rain
Clouds: Mostly cloudy
Visibility: 7 miles , 11 km
Cloud details: Few Clouds 274 m
Mostly cloudy 1158 m
Mostly cloudy 1494 m
2020/03/29 18:56 KSFO 291856Z 10007KT 7SM -RA FEW009 BKN038 BKN049 13/09 A3014 RMK AO2 RAB30 SLP205 P0006 T01280094
KE16 - San Martin, California, USA
Distance from station: ESE 27mi, 43km
Updated: 14/11/2019 09:35
NOT Current
Overcast
Overcast
 Wind from SE
Wind: SE 7 mph , 11 km/h
Temperature: 12°C
Dew Point: 10°C
Humidity: 88%
Barometer: 1017.6 hPa
Clouds: Overcast
Visibility: 10 miles , 16 km
Cloud details: Overcast 427 m
2019/11/14 09:35 KE16 140935Z AUTO 13006KT 10SM OVC014 12/10 A3005 RMK AO2
 
KWVI - Watsonville, California, USA
Distance from station: SSE 27mi, 44km
Updated: 29/03/2020 19:53
Overcast
Overcast
 Wind from SSW
Wind: SSW 5 mph , 7 km/h
Temperature: 14°C
Dew Point: 9°C
Humidity: 72%
Barometer: 1021.3 hPa
Clouds: Overcast
Visibility: 10 miles , 16 km
Cloud details: Overcast 1341 m
2020/03/29 18:53 KWVI 291853Z AUTO 20004KT 10SM OVC044 14/09 A3016 RMK AO2 RAB00E10 SLP212 P0000 T01390094
KHAF - Half Moon Bay, California, USA
Distance from station: WNW 31mi, 50km
Updated: 29/03/2020 19:55
Clear
Clear
 Wind from S
Wind: S 9 mph , 15 km/h
Temperature: 14°C
Dew Point: 10°C
Humidity: 77%
Barometer: 1021 hPa
Clouds: Clear
Visibility: 10 miles , 16 km
2020/03/29 18:55 KHAF 291855Z AUTO 18008KT 10SM CLR 14/10 A3015 RMK AO2
 
KHWD - Hayward, California, USA
Distance from station: N 28mi, 44km
Updated: 29/03/2020 19:54
Mostly cloudy
Mostly cloudy
 Wind from S
Wind: S 5 mph , 7 km/h
Temperature: 16°C
Dew Point: 8°C
Humidity: 59%
Barometer: 1020.3 hPa
Clouds: Mostly cloudy
Visibility: 10 miles , 16 km
Cloud details: Few Clouds 884 m
Mostly cloudy 2134 m
2020/03/29 18:54 KHWD 291854Z 17004KT 10SM FEW029 BKN070 16/08 A3013 RMK AO2 SLP213 T01560078
KLVK - Livermore, California, USA
Distance from station: NNE 31mi, 51km
Updated: 29/03/2020 19:53
Overcast
Overcast
 Wind from calm
Wind: Calm
Temperature: 14°C
Dew Point: 7°C
Humidity: 63%
Barometer: 1020.3 hPa
Clouds: Overcast
Visibility: 10 miles , 16 km
Cloud details: Partly cloudy 945 m
Overcast 1829 m
2020/03/29 18:53 KLVK 291853Z 00000KT 10SM SCT031 OVC060 14/07 A3013 RMK AO2 SLP202 T01390072